Time;durP1;ratioP1;P1;durP2;ratioP2;P2;SDS_P1;SDS_P2;PMS_P1;PMS_P2;Temp;Humidity;BMP_temperature;BMP_pressure;BME280_temperature;BME280_humidity;BME280_pressure;Samples;Min_cycle;Max_cycle;Signal;HPM_P1;HPM_P2
2024/04/17 00:04:08;;;;;;;5.18;2.97;;;;;;;9.53;69.66;99461.88;10868390;27;20011;-60
2024/04/17 00:09:11;;;;;;;4.85;3.90;;;;;;;9.54;70.01;99468.13;10860758;27;20018;-60
2024/04/17 00:14:12;;;;;;;8.30;3.78;;;;;;;9.58;70.28;99464.03;10856794;27;20015;-60
2024/04/17 00:19:14;;;;;;;6.20;3.72;;;;;;;9.60;70.17;99458.47;10868710;27;20711;-60
2024/04/17 00:24:15;;;;;;;8.13;4.72;;;;;;;9.65;70.15;99461.38;10871531;27;20025;-60
2024/04/17 00:29:17;;;;;;;6.20;4.03;;;;;;;9.67;69.85;99452.13;10831204;27;20005;-60
2024/04/17 00:34:18;;;;;;;8.38;3.92;;;;;;;9.69;69.93;99460.81;10850595;27;20013;-60
2024/04/17 00:39:20;;;;;;;6.40;4.10;;;;;;;9.77;69.63;99462.53;10859718;27;20003;-59
2024/04/17 00:44:21;;;;;;;8.57;4.43;;;;;;;9.88;69.69;99464.69;10863468;27;20422;-59
2024/04/17 00:49:23;;;;;;;7.82;4.18;;;;;;;9.97;69.35;99457.31;10861687;27;20021;-59
2024/04/17 00:54:25;;;;;;;9.57;5.38;;;;;;;9.96;69.03;99460.22;10844402;27;20012;-59
2024/04/17 00:59:27;;;;;;;9.32;5.55;;;;;;;9.88;69.81;99463.88;10859568;27;20003;-59
2024/04/17 01:04:28;;;;;;;9.45;5.30;;;;;;;9.81;70.20;99462.97;10860466;27;20006;-59
2024/04/17 01:09:30;;;;;;;11.00;6.63;;;;;;;9.88;69.46;99453.13;10863231;27;20014;-59
2024/04/17 01:14:31;;;;;;;12.80;7.00;;;;;;;9.90;69.68;99464.50;10869132;27;20020;-59
2024/04/17 01:19:33;;;;;;;10.18;6.07;;;;;;;9.78;69.79;99458.00;10865905;27;20017;-59
2024/04/17 01:24:35;;;;;;;10.85;5.53;;;;;;;9.67;70.26;99462.03;10876421;27;20006;-59
2024/04/17 01:29:37;;;;;;;8.23;5.13;;;;;;;9.63;70.05;99466.94;10869810;27;20022;-59
2024/04/17 01:34:38;;;;;;;10.13;5.10;;;;;;;9.64;69.88;99460.56;10818418;27;20363;-59
2024/04/17 01:39:40;;;;;;;10.05;5.70;;;;;;;9.60;70.29;99455.78;10870347;27;20006;-58
2024/04/17 01:44:41;;;;;;;13.73;5.70;;;;;;;9.52;70.17;99467.47;10865563;27;20022;-59
2024/04/17 01:49:43;;;;;;;12.00;5.85;;;;;;;9.55;70.22;99459.03;10865743;27;20335;-61
2024/04/17 01:54:44;;;;;;;11.30;5.20;;;;;;;9.58;70.37;99464.03;10868455;27;20022;-61
2024/04/17 01:59:46;;;;;;;10.68;5.75;;;;;;;9.52;70.23;99465.63;10869361;27;20343;-60
2024/04/17 02:04:47;;;;;;;9.82;5.32;;;;;;;9.51;69.66;99469.31;10860419;27;19999;-59
2024/04/17 02:09:51;;;;;;;8.52;4.95;;;;;;;9.52;70.18;99470.16;10852247;27;20340;-59
2024/04/17 02:14:52;;;;;;;11.18;5.43;;;;;;;9.48;69.77;99461.66;10863577;27;20002;-60
2024/04/17 02:19:54;;;;;;;9.50;5.28;;;;;;;9.41;70.21;99473.34;10836648;27;20616;-59
2024/04/17 02:24:56;;;;;;;8.63;5.00;;;;;;;9.32;70.01;99477.97;10868687;27;20128;-59
2024/04/17 02:29:57;;;;;;;9.50;5.00;;;;;;;9.31;70.26;99485.19;10864391;27;20009;-59
2024/04/17 02:34:59;;;;;;;10.05;6.03;;;;;;;9.32;70.01;99476.13;10863619;27;20003;-59
2024/04/17 02:40:01;;;;;;;9.27;5.18;;;;;;;9.27;69.75;99489.28;10869841;27;20014;-59
2024/04/17 02:45:02;;;;;;;8.38;4.70;;;;;;;9.20;69.50;99480.34;10866122;27;19998;-59
2024/04/17 02:50:04;;;;;;;9.93;5.45;;;;;;;9.18;70.26;99479.66;10867602;27;20002;-58
2024/04/17 02:55:06;;;;;;;7.53;4.35;;;;;;;9.18;69.62;99478.84;10873529;27;20010;-59
2024/04/17 03:00:08;;;;;;;9.10;5.15;;;;;;;9.20;69.77;99483.03;10859646;27;20018;-59
2024/04/17 03:05:10;;;;;;;8.38;4.32;;;;;;;9.29;69.06;99491.78;10853208;27;20341;-60
2024/04/17 03:10:12;;;;;;;11.32;3.97;;;;;;;9.21;69.47;99490.03;10863168;27;20003;-59
2024/04/17 03:15:13;;;;;;;8.00;4.07;;;;;;;9.26;68.89;99497.50;10832713;27;21466;-58
2024/04/17 03:20:15;;;;;;;7.10;3.58;;;;;;;9.20;68.98;99488.38;10863406;27;20583;-58
2024/04/17 03:25:17;;;;;;;7.50;4.35;;;;;;;9.21;69.21;99495.38;10866138;27;20018;-58
2024/04/17 03:30:18;;;;;;;6.57;3.70;;;;;;;9.22;69.33;99498.91;10868979;27;20014;-60
2024/04/17 03:35:20;;;;;;;6.53;3.25;;;;;;;9.22;69.17;99509.63;10878798;27;20681;-59
2024/04/17 03:40:21;;;;;;;7.28;3.50;;;;;;;9.24;69.24;99505.75;10876689;27;20085;-58
2024/04/17 03:45:23;;;;;;;5.68;3.13;;;;;;;9.24;68.98;99521.00;10868507;27;20047;-59
2024/04/17 03:50:24;;;;;;;3.53;2.63;;;;;;;9.21;68.78;99530.25;10867472;27;20014;-58
2024/04/17 03:55:26;;;;;;;8.90;3.20;;;;;;;9.16;68.81;99527.28;10874240;27;20476;-59
2024/04/17 04:00:27;;;;;;;3.95;2.63;;;;;;;9.13;69.10;99533.88;10862109;27;20010;-59
2024/04/17 04:05:29;;;;;;;4.38;2.50;;;;;;;8.97;68.90;99544.78;10860489;27;20006;-58
2024/04/17 04:10:30;;;;;;;6.57;3.30;;;;;;;8.90;68.73;99543.84;10860409;27;20021;-59
2024/04/17 04:15:32;;;;;;;7.57;3.38;;;;;;;8.77;68.90;99549.03;10861696;27;20025;-61
2024/04/17 04:20:34;;;;;;;5.80;3.03;;;;;;;8.65;69.32;99556.69;10858078;27;20015;-61
2024/04/17 04:25:35;;;;;;;7.13;2.67;;;;;;;8.53;69.19;99564.34;10869904;27;23716;-62
2024/04/17 04:30:40;;;;;;;8.60;2.10;;;;;;;8.52;69.00;99566.19;10866389;27;20025;-62
2024/04/17 04:35:42;;;;;;;3.83;2.30;;;;;;;8.48;68.90;99570.25;10861257;27;20023;-63
2024/04/17 04:40:44;;;;;;;5.47;2.13;;;;;;;8.45;69.24;99584.00;10862210;27;20006;-63
2024/04/17 04:45:45;;;;;;;6.30;2.35;;;;;;;8.43;68.85;99582.50;10867738;27;20007;-63
2024/04/17 04:50:47;;;;;;;5.78;2.13;;;;;;;8.39;68.42;99595.38;10874273;27;20054;-63
2024/04/17 04:55:59;;;;;;;5.20;2.03;;;;;;;8.30;68.74;99588.47;10869515;27;20002;-63
2024/04/17 05:01:00;;;;;;;4.18;1.70;;;;;;;8.32;68.70;99592.63;10870657;27;20003;-63
2024/04/17 05:06:06;;;;;;;3.92;1.45;;;;;;;8.37;68.32;99594.75;10845967;27;20095;-63
2024/04/17 05:11:10;;;;;;;7.82;1.67;;;;;;;8.33;68.63;99602.31;10872567;27;20010;-63
2024/04/17 05:16:12;;;;;;;1.85;1.17;;;;;;;8.36;68.40;99611.84;10877607;27;19998;-62
2024/04/17 05:21:13;;;;;;;4.68;1.95;;;;;;;8.45;68.59;99607.25;10879696;27;20010;-61
2024/04/17 05:26:15;;;;;;;6.28;1.27;;;;;;;8.52;68.11;99613.56;10858384;27;19999;-61
2024/04/17 05:31:16;;;;;;;6.15;1.77;;;;;;;8.45;68.41;99631.38;10843448;27;20006;-61
2024/04/17 05:36:18;;;;;;;3.35;1.75;;;;;;;8.51;68.33;99636.84;10873634;27;20002;-63
2024/04/17 05:41:19;;;;;;;6.53;1.50;;;;;;;8.48;68.62;99644.41;10868881;27;20022;-61
2024/04/17 05:46:25;;;;;;;5.18;1.35;;;;;;;8.34;68.32;99651.34;10880261;27;20472;-61
2024/04/17 05:51:27;;;;;;;2.58;0.88;;;;;;;8.36;68.13;99646.66;10869321;27;20050;-61
2024/04/17 05:56:28;;;;;;;3.97;0.90;;;;;;;8.43;68.13;99647.63;10870747;27;20021;-61
2024/04/17 06:01:30;;;;;;;1.70;0.60;;;;;;;8.44;67.78;99653.81;10865814;27;20022;-61
2024/04/17 06:06:31;;;;;;;1.80;1.17;;;;;;;8.50;67.94;99664.63;10849251;27;20054;-61
2024/04/17 06:11:33;;;;;;;6.15;1.63;;;;;;;8.63;67.76;99668.56;10870336;27;20018;-61
2024/04/17 06:16:35;;;;;;;6.75;1.05;;;;;;;8.66;67.54;99677.06;10877136;27;20455;-61
2024/04/17 06:21:37;;;;;;;5.10;1.40;;;;;;;8.60;67.82;99679.66;10865232;27;20007;-61
2024/04/17 06:26:38;;;;;;;5.15;1.10;;;;;;;8.66;67.65;99686.97;10869759;27;20004;-61
2024/04/17 06:31:40;;;;;;;3.15;0.95;;;;;;;8.62;67.20;99688.34;10865389;27;20007;-63
2024/04/17 06:36:41;;;;;;;2.33;0.80;;;;;;;8.62;67.44;99694.50;10867988;27;20612;-62
2024/04/17 06:41:43;;;;;;;7.57;1.08;;;;;;;8.66;66.56;99692.31;10846146;27;20021;-63
2024/04/17 06:47:01;;;;;;;10.15;1.65;;;;;;;8.72;66.30;99689.75;10877948;27;20011;-63
2024/04/17 06:52:03;;;;;;;3.00;0.50;;;;;;;8.83;66.52;99693.03;10898112;26;20337;-63
2024/04/17 06:57:04;;;;;;;4.75;1.02;;;;;;;8.85;65.60;99705.22;10865086;27;20022;-63
2024/04/17 07:02:06;;;;;;;19.35;1.48;;;;;;;8.91;65.60;99706.34;10871929;27;20024;-63
2024/04/17 07:07:08;;;;;;;2.95;0.63;;;;;;;8.93;65.34;99715.88;10866837;27;20006;-63
2024/04/17 07:12:10;;;;;;;6.45;0.68;;;;;;;8.94;65.31;99708.66;10868658;27;20354;-62
2024/04/17 07:17:12;;;;;;;4.38;0.80;;;;;;;8.99;64.97;99714.31;10873454;27;20010;-63
2024/04/17 07:22:18;;;;;;;1.42;0.50;;;;;;;9.05;64.57;99716.25;10859719;27;20006;-62
2024/04/17 07:27:19;;;;;;;9.35;1.05;;;;;;;9.06;64.17;99717.94;10862963;27;20022;-63
2024/04/17 07:32:21;;;;;;;3.10;0.52;;;;;;;9.25;63.77;99708.53;10870841;27;20123;-60
2024/04/17 07:37:23;;;;;;;4.93;0.50;;;;;;;9.55;63.28;99713.91;10886904;27;20006;-66
2024/04/17 07:42:24;;;;;;;6.60;1.98;;;;;;;9.66;62.59;99709.94;10877127;27;20017;-67
2024/04/17 07:47:26;;;;;;;4.32;0.80;;;;;;;9.87;61.44;99707.34;10885838;27;20339;-65
2024/04/17 07:52:28;;;;;;;2.53;0.40;;;;;;;10.01;60.89;99711.00;10878013;27;20011;-66
2024/04/17 07:57:30;;;;;;;1.30;0.30;;;;;;;9.98;59.88;99719.44;10876469;27;20092;-66
2024/04/17 08:02:32;;;;;;;2.03;0.30;;;;;;;10.20;59.69;99717.63;10878378;27;20002;-63
2024/04/17 08:07:33;;;;;;;4.60;0.68;;;;;;;10.13;59.82;99719.41;10888254;27;20017;-65
2024/04/17 08:12:36;;;;;;;2.05;0.60;;;;;;;10.15;58.80;99735.31;10879648;27;20467;-62
2024/04/17 08:17:38;;;;;;;5.63;0.60;;;;;;;10.10;58.38;99733.22;10905550;27;20014;-61
2024/04/17 08:22:39;;;;;;;2.00;0.70;;;;;;;10.18;57.92;99743.84;10926459;27;19995;-62
2024/04/17 08:27:41;;;;;;;3.10;0.60;;;;;;;10.27;57.80;99734.66;10916882;27;20017;-61
2024/04/17 08:32:43;;;;;;;5.13;0.60;;;;;;;10.44;57.51;99729.91;10918672;26;20005;-62
2024/04/17 08:37:45;;;;;;;2.92;0.40;;;;;;;10.73;56.56;99736.19;10888748;27;20017;-61
2024/04/17 08:42:51;;;;;;;4.05;0.73;;;;;;;10.86;56.32;99741.69;10929097;26;20006;-61
2024/04/17 08:47:55;;;;;;;7.60;0.77;;;;;;;10.77;55.80;99745.53;10902747;27;20003;-65
2024/04/17 08:53:02;;;;;;;2.75;0.63;;;;;;;11.01;55.03;99735.41;10907726;27;20010;-61
2024/04/17 08:58:04;;;;;;;1.63;0.50;;;;;;;11.38;54.99;99731.56;10902945;27;20020;-65
2024/04/17 09:03:15;;;;;;;1.63;0.50;;;;;;;11.76;54.73;99728.47;10874434;27;20002;-66
2024/04/17 09:08:18;;;;;;;2.10;0.73;;;;;;;12.07;54.26;99724.50;10863886;27;20017;-69
2024/04/17 09:13:20;;;;;;;1.95;0.52;;;;;;;12.13;53.97;99728.25;10878554;27;20021;-65
2024/04/17 09:18:25;;;;;;;5.75;0.70;;;;;;;11.98;53.96;99721.13;10875136;27;20109;-68
2024/04/17 09:23:27;;;;;;;2.17;0.73;;;;;;;11.93;53.52;99722.75;10874125;27;20014;-65
2024/04/17 09:28:32;;;;;;;0.70;0.30;;;;;;;11.83;53.03;99718.56;10854502;27;20897;-65
2024/04/17 09:33:34;;;;;;;2.97;0.40;;;;;;;12.32;52.06;99727.47;10864931;27;20534;-69
2024/04/17 09:38:35;;;;;;;0.95;0.55;;;;;;;12.39;51.08;99717.56;10868692;27;20018;-66
2024/04/17 09:43:44;;;;;;;2.85;0.30;;;;;;;12.84;50.17;99709.75;10866778;27;20332;-70
2024/04/17 09:48:50;;;;;;;1.45;0.38;;;;;;;13.17;50.03;99705.38;10866756;27;20090;-69
2024/04/17 09:53:59;;;;;;;1.30;0.20;;;;;;;13.36;49.76;99712.66;10865978;27;20017;-64
2024/04/17 09:59:02;;;;;;;0.30;0.30;;;;;;;13.56;48.78;99706.38;10848485;27;19999;-63
2024/04/17 10:04:09;;;;;;;3.13;0.40;;;;;;;13.32;48.41;99708.72;10859475;27;20029;-63
2024/04/17 10:09:15;;;;;;;3.30;0.20;;;;;;;13.62;47.42;99698.25;10866604;27;20007;-64
2024/04/17 10:14:17;;;;;;;3.95;0.43;;;;;;;13.28;47.20;99700.16;10861477;27;20415;-63
2024/04/17 10:19:20;;;;;;;1.15;0.20;;;;;;;12.77;47.08;99710.78;10868163;27;20002;-63
2024/04/17 10:24:21;;;;;;;5.68;0.30;;;;;;;12.92;46.31;99707.88;10868547;27;20022;-63
2024/04/17 10:29:25;;;;;;;2.85;0.20;;;;;;;13.34;44.80;99695.84;10861938;27;19999;-63
2024/04/17 10:34:28;;;;;;;0.30;0.20;;;;;;;13.88;43.68;99688.41;10800598;27;20009;-61
2024/04/17 10:39:30;;;;;;;1.30;0.20;;;;;;;14.12;43.08;99689.56;10832942;27;20007;-61
2024/04/17 10:44:34;;;;;;;1.88;0.30;;;;;;;13.66;43.23;99704.06;10865035;27;20021;-61
2024/04/17 10:49:41;;;;;;;2.55;0.35;;;;;;;13.35;43.41;99688.56;10869747;27;20010;-59
2024/04/17 10:54:44;;;;;;;1.90;0.40;;;;;;;13.31;43.40;99698.97;10854095;27;20327;-58
2024/04/17 10:59:47;;;;;;;2.38;0.52;;;;;;;13.48;42.68;99691.25;10886294;27;20018;-57
2024/04/17 11:04:49;;;;;;;2.47;0.30;;;;;;;13.65;42.56;99689.75;10883186;27;20011;-57
2024/04/17 11:09:51;;;;;;;1.20;0.40;;;;;;;13.78;42.54;99682.63;10869926;27;20031;-64
2024/04/17 11:15:00;;;;;;;2.45;0.45;;;;;;;14.06;41.88;99683.16;10859477;27;20007;-63
2024/04/17 11:20:04;;;;;;;0.60;0.20;;;;;;;14.18;41.81;99680.59;10861051;27;20007;-63
2024/04/17 11:25:13;;;;;;;0.85;0.30;;;;;;;13.82;41.29;99681.16;10853365;27;20013;-64
2024/04/17 11:30:16;;;;;;;2.67;0.30;;;;;;;13.59;40.76;99677.09;10862184;27;22599;-64
2024/04/17 11:35:18;;;;;;;2.33;0.30;;;;;;;13.65;40.60;99678.13;10871596;27;20538;-72
2024/04/17 11:40:19;;;;;;;3.50;0.20;;;;;;;13.54;40.66;99687.69;10864694;27;20006;-71
2024/04/17 11:45:22;;;;;;;1.73;0.30;;;;;;;13.48;40.70;99681.25;10868643;27;20021;-61
2024/04/17 11:50:24;;;;;;;1.00;0.30;;;;;;;13.24;41.05;99682.72;10854132;27;20006;-70
2024/04/17 11:55:26;;;;;;;1.08;0.30;;;;;;;13.32;40.91;99686.28;10861571;27;20014;-70
2024/04/17 12:00:27;;;;;;;2.33;0.30;;;;;;;13.72;40.42;99678.09;10861226;27;20015;-69
2024/04/17 12:05:29;;;;;;;0.90;0.30;;;;;;;13.91;40.01;99669.06;10866349;27;20017;-67
2024/04/17 12:10:31;;;;;;;2.08;0.60;;;;;;;14.64;39.52;99668.69;10839186;27;20084;-71
2024/04/17 12:15:32;;;;;;;1.67;0.60;;;;;;;15.71;37.97;99654.09;10855719;27;20016;-67
2024/04/17 12:20:34;;;;;;;2.15;1.10;;;;;;;14.90;39.77;99674.94;10864987;27;19999;-61
2024/04/17 12:30:56;;;;;;;1.10;0.70;;;;;;;13.69;42.24;99687.44;10865529;27;20010;-58
2024/04/17 12:35:58;;;;;;;5.38;1.45;;;;;;;13.73;42.62;99683.28;10887230;27;20006;-58
2024/04/17 12:41:00;;;;;;;1.00;0.80;;;;;;;14.58;41.89;99679.56;10899104;27;20011;-59
2024/04/17 12:46:06;;;;;;;2.95;0.70;;;;;;;17.76;37.00;99642.09;10853948;27;20100;-58
2024/04/17 12:51:08;;;;;;;2.47;0.80;;;;;;;19.25;34.45;99650.16;10853924;27;20015;-58
2024/04/17 12:56:15;;;;;;;1.60;1.13;;;;;;;20.70;32.56;99637.97;10852950;27;20026;-58
2024/04/17 13:01:18;;;;;;;2.67;0.60;;;;;;;22.02;31.33;99630.78;10853275;27;20085;-59
2024/04/17 13:06:19;;;;;;;1.42;0.40;;;;;;;22.35;30.57;99644.06;10917964;27;20016;-59
2024/04/17 13:11:24;;;;;;;0.70;0.20;;;;;;;21.44;31.06;99659.00;10959543;27;20468;-59
2024/04/17 13:16:26;;;;;;;0.10;0.10;;;;;;;21.39;29.89;99640.63;10927625;27;20002;-59
2024/04/17 13:21:27;;;;;;;0.00;0.00;;;;;;;22.65;28.43;99628.72;10905090;27;20171;-60
2024/04/17 13:26:29;;;;;;;0.17;0.08;;;;;;;23.01;28.21;99633.38;10907774;27;20014;-61
2024/04/17 13:31:30;;;;;;;0.10;0.10;;;;;;;23.15;28.27;99629.00;10866674;27;20017;-65
2024/04/17 13:36:32;;;;;;;0.10;0.10;;;;;;;22.96;28.89;99624.03;10866785;27;20026;-65
2024/04/17 13:41:34;;;;;;;0.15;0.10;;;;;;;22.58;29.26;99630.91;10863951;27;20483;-65
2024/04/17 13:46:40;;;;;;;0.30;0.10;;;;;;;22.31;29.56;99623.75;10872025;27;20006;-66
2024/04/17 13:51:41;;;;;;;0.98;0.10;;;;;;;20.54;31.53;99628.78;10858339;27;20127;-65
2024/04/17 13:56:43;;;;;;;0.63;0.10;;;;;;;18.81;33.05;99642.69;10839602;27;20014;-65
2024/04/17 14:01:47;;;;;;;0.35;0.10;;;;;;;18.32;33.83;99628.75;10832603;27;20013;-64
2024/04/17 14:06:50;;;;;;;0.10;0.10;;;;;;;18.78;32.96;99630.38;10836987;27;20007;-65
2024/04/17 14:11:52;;;;;;;0.80;0.10;;;;;;;19.24;31.90;99633.00;10860122;27;20632;-66
2024/04/17 14:16:55;;;;;;;0.32;0.10;;;;;;;20.19;31.67;99606.34;10856801;27;20008;-65
2024/04/17 14:21:57;;;;;;;0.10;0.10;;;;;;;20.49;31.20;99615.91;10867519;27;20023;-65
2024/04/17 14:26:58;;;;;;;0.43;0.17;;;;;;;20.15;31.72;99612.59;10876672;27;20013;-66
2024/04/17 14:32:00;;;;;;;0.20;0.10;;;;;;;19.06;32.61;99615.03;10864630;27;20036;-66
2024/04/17 14:37:01;;;;;;;0.00;0.00;;;;;;;18.24;34.38;99624.53;10855171;27;20014;-64
2024/04/17 14:42:04;;;;;;;0.95;0.10;;;;;;;17.98;34.63;99621.34;10909821;27;20001;-59
2024/04/17 14:47:06;;;;;;;0.10;0.10;;;;;;;17.58;34.71;99622.16;10911887;27;20014;-60
2024/04/17 14:52:08;;;;;;;0.10;0.10;;;;;;;16.79;36.12;99622.53;10901878;27;20353;-59
2024/04/17 14:57:10;;;;;;;0.10;0.10;;;;;;;16.89;36.04;99618.47;10900770;27;20007;-62
2024/04/17 15:02:11;;;;;;;0.17;0.00;;;;;;;15.53;38.13;99611.59;10886434;27;20022;-59
2024/04/17 15:07:13;;;;;;;0.68;0.20;;;;;;;15.75;38.46;99592.19;10865740;27;20010;-62
2024/04/17 15:12:14;;;;;;;0.20;0.20;;;;;;;18.04;35.15;99576.84;10870404;27;20017;-61
2024/04/17 15:17:16;;;;;;;0.32;0.20;;;;;;;18.81;34.26;99569.16;10883038;27;20026;-64
2024/04/17 15:22:18;;;;;;;0.75;0.30;;;;;;;17.73;35.05;99585.47;10869906;27;20002;-60
2024/04/17 15:27:19;;;;;;;1.63;0.30;;;;;;;16.90;35.98;99592.94;10876734;27;20020;-62
2024/04/17 15:32:21;;;;;;;0.75;0.40;;;;;;;16.40;36.53;99595.00;10873291;27;20003;-63
2024/04/17 15:37:23;;;;;;;0.68;0.40;;;;;;;17.27;35.55;99595.41;10886941;27;20018;-61
2024/04/17 15:42:25;;;;;;;1.75;0.20;;;;;;;17.80;34.62;99600.56;10882283;27;20002;-59
2024/04/17 15:47:26;;;;;;;1.23;0.10;;;;;;;16.65;35.95;99616.50;10886250;27;20002;-66
2024/04/17 15:52:28;;;;;;;1.50;0.40;;;;;;;15.98;36.59;99621.28;10857236;27;20013;-59
2024/04/17 15:57:30;;;;;;;0.50;0.30;;;;;;;15.96;36.49;99613.38;10885752;27;20480;-62
2024/04/17 16:02:32;;;;;;;1.23;0.30;;;;;;;15.98;36.57;99624.81;10880705;27;20027;-59
2024/04/17 16:07:34;;;;;;;3.47;0.63;;;;;;;15.20;38.18;99628.22;10863122;27;20072;-59
2024/04/17 16:12:35;;;;;;;1.05;0.77;;;;;;;14.73;38.37;99635.94;10868072;27;20007;-59
2024/04/17 16:17:38;;;;;;;1.52;0.50;;;;;;;14.35;39.24;99645.75;10856618;27;20006;-68
2024/04/17 16:22:40;;;;;;;2.67;0.43;;;;;;;14.07;39.53;99633.44;10848467;27;20037;-60
2024/04/17 16:27:41;;;;;;;1.42;0.30;;;;;;;13.88;39.83;99639.78;10866659;27;20022;-59
2024/04/17 16:32:43;;;;;;;0.30;0.30;;;;;;;13.77;39.96;99637.78;10878321;27;20009;-61
2024/04/17 16:37:44;;;;;;;0.50;0.45;;;;;;;13.80;40.39;99640.03;10871027;27;20018;-61
2024/04/17 16:42:47;;;;;;;1.48;0.30;;;;;;;13.56;40.30;99641.56;10870942;27;20025;-58
2024/04/17 16:47:48;;;;;;;1.90;0.30;;;;;;;13.39;40.98;99642.06;10869729;27;20293;-60
2024/04/17 16:52:53;;;;;;;0.60;0.40;;;;;;;13.30;41.27;99640.63;10870949;27;20098;-58
2024/04/17 16:57:55;;;;;;;1.45;1.30;;;;;;;12.85;41.33;99643.97;10869841;27;20010;-60
2024/04/17 17:02:57;;;;;;;0.88;0.40;;;;;;;12.54;41.55;99646.44;10872311;27;20014;-58
2024/04/17 17:07:58;;;;;;;1.73;0.45;;;;;;;12.24;42.02;99647.66;10840858;27;20090;-60
2024/04/17 17:13:04;;;;;;;0.68;0.30;;;;;;;12.19;42.32;99649.31;10832307;27;20697;-60
2024/04/17 17:18:06;;;;;;;2.13;0.70;;;;;;;12.17;42.35;99651.38;10871164;27;20018;-60
2024/04/17 17:23:07;;;;;;;3.42;0.43;;;;;;;12.23;42.53;99658.66;10845337;27;20013;-62
2024/04/17 17:28:09;;;;;;;3.17;0.52;;;;;;;12.26;42.77;99652.81;10868937;27;20082;-62
2024/04/17 17:33:10;;;;;;;1.77;0.40;;;;;;;12.36;42.80;99658.69;10869551;27;20021;-58
2024/04/17 17:38:12;;;;;;;0.77;0.50;;;;;;;12.40;42.97;99659.06;10875314;27;20085;-60
2024/04/17 17:43:14;;;;;;;0.75;0.40;;;;;;;12.47;43.00;99657.22;10833664;27;20002;-58
2024/04/17 17:48:16;;;;;;;1.15;0.40;;;;;;;12.27;43.50;99657.19;10864954;27;20003;-61
2024/04/17 17:53:18;;;;;;;1.30;0.47;;;;;;;12.23;43.84;99662.16;10861803;27;19999;-60
2024/04/17 17:58:19;;;;;;;1.27;0.50;;;;;;;12.22;44.19;99656.97;10861960;27;20523;-59
2024/04/17 18:03:22;;;;;;;1.80;0.55;;;;;;;12.05;44.74;99670.00;10870463;27;20025;-61
2024/04/17 18:08:25;;;;;;;1.45;0.40;;;;;;;11.76;44.89;99665.72;10873932;27;20090;-61
2024/04/17 18:13:28;;;;;;;1.05;0.50;;;;;;;11.55;45.45;99674.72;10871587;27;20020;-61
2024/04/17 18:18:31;;;;;;;1.63;0.47;;;;;;;11.57;45.92;99678.03;10866964;27;20007;-60
2024/04/17 18:23:34;;;;;;;2.15;0.45;;;;;;;11.41;45.50;99676.50;10841574;27;20466;-60
2024/04/17 18:28:37;;;;;;;0.73;0.30;;;;;;;11.26;46.14;99685.53;10868056;27;20011;-59
2024/04/17 18:33:39;;;;;;;1.27;0.50;;;;;;;11.05;46.14;99696.34;10866529;27;20015;-59
2024/04/17 18:38:43;;;;;;;2.85;0.30;;;;;;;10.95;46.15;99712.81;10869436;27;20046;-59
2024/04/17 18:43:54;;;;;;;1.23;0.30;;;;;;;10.84;46.95;99719.56;10860785;27;20021;-59
2024/04/17 18:48:58;;;;;;;2.53;0.40;;;;;;;10.73;47.42;99725.44;10859870;27;20018;-59
2024/04/17 18:54:00;;;;;;;1.30;0.20;;;;;;;10.57;47.63;99734.59;10791818;27;20138;-59
2024/04/17 18:59:02;;;;;;;0.45;0.22;;;;;;;10.42;47.78;99737.31;10832494;27;20681;-59
2024/04/17 19:04:05;;;;;;;0.70;0.30;;;;;;;10.28;48.19;99743.53;10845619;27;20006;-59
2024/04/17 19:09:06;;;;;;;1.25;0.75;;;;;;;10.10;48.33;99749.31;10861641;27;20350;-59
2024/04/17 19:14:08;;;;;;;1.85;0.45;;;;;;;10.00;49.20;99760.34;10836434;27;20003;-58
2024/04/17 19:19:10;;;;;;;1.73;0.20;;;;;;;10.02;49.34;99768.22;10865450;27;20007;-58
2024/04/17 19:24:11;;;;;;;2.35;0.60;;;;;;;10.00;49.30;99762.22;10864262;27;20336;-59
2024/04/17 19:29:14;;;;;;;1.88;0.30;;;;;;;9.96;49.57;99766.28;10859547;27;20722;-59
2024/04/17 19:34:35;;;;;;;2.78;0.70;;;;;;;9.89;49.53;99776.91;10856880;27;20351;-59
2024/04/17 19:39:40;;;;;;;2.88;0.73;;;;;;;9.83;50.40;99778.50;10857385;27;20047;-58
2024/04/17 19:44:42;;;;;;;3.03;0.50;;;;;;;9.82;50.87;99787.56;10830120;27;20397;-58
2024/04/17 19:49:45;;;;;;;1.88;0.50;;;;;;;9.76;51.13;99782.94;10852048;27;20046;-58
2024/04/17 19:54:47;;;;;;;2.15;0.40;;;;;;;9.53;51.55;99788.38;10867148;27;20014;-57
2024/04/17 19:59:49;;;;;;;1.88;0.30;;;;;;;9.60;51.41;99792.00;10834629;27;20053;-59
2024/04/17 20:04:51;;;;;;;0.70;0.40;;;;;;;9.66;51.51;99785.91;10866866;27;20025;-59
2024/04/17 20:09:52;;;;;;;1.42;0.55;;;;;;;9.60;52.27;99793.88;10861432;27;20007;-58
2024/04/17 20:14:54;;;;;;;2.33;0.80;;;;;;;9.61;52.45;99800.88;10864594;27;20017;-58
2024/04/17 20:19:55;;;;;;;1.75;0.63;;;;;;;9.69;51.54;99801.63;10861818;27;20014;-58
2024/04/17 20:24:57;;;;;;;0.93;0.65;;;;;;;9.75;51.84;99801.91;10861648;27;20022;-58
2024/04/17 20:29:59;;;;;;;1.30;0.50;;;;;;;9.83;51.79;99796.44;10857272;27;20017;-59
2024/04/17 20:35:01;;;;;;;1.63;0.60;;;;;;;9.87;52.15;99795.91;10850282;27;20043;-59
2024/04/17 20:40:03;;;;;;;3.45;1.02;;;;;;;9.68;52.98;99791.91;10848496;27;20012;-59
2024/04/17 20:45:19;;;;;;;1.30;0.52;;;;;;;9.60;53.32;99794.69;10849843;27;20841;-59
2024/04/17 20:50:21;;;;;;;2.83;0.43;;;;;;;9.47;53.25;99795.31;10862469;27;20014;-59
2024/04/17 20:55:24;;;;;;;0.85;0.50;;;;;;;9.38;53.74;99792.88;10843090;27;19998;-58
2024/04/17 21:00:26;;;;;;;3.03;0.50;;;;;;;9.37;53.20;99786.69;10816052;27;20086;-58
2024/04/17 21:05:28;;;;;;;4.97;0.68;;;;;;;9.32;53.75;99792.63;10861263;27;20039;-59
2024/04/17 21:10:29;;;;;;;1.60;0.40;;;;;;;9.16;53.39;99795.41;10861312;27;20011;-59
2024/04/17 21:15:31;;;;;;;0.70;0.30;;;;;;;9.00;53.85;99800.91;10827213;27;20319;-59
2024/04/17 21:20:34;;;;;;;0.80;0.47;;;;;;;8.90;53.97;99798.47;10856676;27;20354;-59
2024/04/17 21:25:36;;;;;;;1.42;0.50;;;;;;;8.83;53.92;99806.41;10848280;27;20007;-59
2024/04/17 21:30:38;;;;;;;1.98;0.50;;;;;;;8.92;53.76;99812.53;10863552;27;20003;-59
2024/04/17 21:35:40;;;;;;;5.60;0.68;;;;;;;8.88;53.80;99806.69;10867837;27;20014;-59
2024/04/17 21:40:56;;;;;;;2.60;0.73;;;;;;;8.82;54.35;99815.44;10848482;27;20014;-58
2024/04/17 21:46:05;;;;;;;1.15;0.60;;;;;;;8.70;54.35;99812.34;10862398;27;20014;-58
2024/04/17 21:51:08;;;;;;;3.47;0.70;;;;;;;8.57;54.78;99816.63;10832083;27;20034;-58
2024/04/17 21:56:12;;;;;;;0.77;0.38;;;;;;;8.49;55.04;99822.84;10831124;27;20114;-58
2024/04/17 22:01:14;;;;;;;1.67;0.52;;;;;;;8.40;55.05;99818.53;10859763;27;20007;-60
2024/04/17 22:06:16;;;;;;;1.25;0.40;;;;;;;8.30;54.94;99826.78;10825952;27;20006;-58
2024/04/17 22:11:25;;;;;;;1.23;0.52;;;;;;;8.21;55.37;99835.84;10828805;27;20088;-58
2024/04/17 22:16:27;;;;;;;4.75;0.47;;;;;;;8.11;55.66;99846.75;10854523;27;20021;-59
2024/04/17 22:21:29;;;;;;;0.90;0.47;;;;;;;8.03;55.97;99844.09;10836869;27;20025;-58
2024/04/17 22:26:34;;;;;;;3.63;1.10;;;;;;;7.97;56.12;99845.63;10873490;27;20011;-58
2024/04/17 22:31:35;;;;;;;1.60;0.98;;;;;;;7.86;56.41;99849.50;10830272;27;20002;-59
2024/04/17 22:36:38;;;;;;;2.13;0.75;;;;;;;7.67;56.86;99850.69;10841688;27;20017;-58
2024/04/17 22:41:40;;;;;;;2.20;0.80;;;;;;;7.56;56.93;99853.72;10867876;27;20018;-58
2024/04/17 22:46:42;;;;;;;0.98;0.68;;;;;;;7.61;57.04;99867.44;10858699;27;20018;-58
2024/04/17 22:51:44;;;;;;;3.17;0.88;;;;;;;7.63;57.00;99869.94;10822483;27;20342;-60
2024/04/17 22:56:47;;;;;;;4.15;0.82;;;;;;;7.59;57.10;99873.97;10869349;27;20017;-60
2024/04/17 23:01:50;;;;;;;1.55;1.00;;;;;;;7.51;57.52;99880.16;10822256;27;20007;-59
2024/04/17 23:06:54;;;;;;;2.67;1.25;;;;;;;7.44;57.72;99881.81;10841883;27;20007;-60
2024/04/17 23:12:01;;;;;;;2.75;1.00;;;;;;;7.37;58.00;99887.00;10859982;27;21207;-59
2024/04/17 23:17:02;;;;;;;2.58;1.50;;;;;;;7.31;58.27;99893.84;10859662;27;20626;-60
2024/04/17 23:22:04;;;;;;;6.47;1.60;;;;;;;7.27;58.36;99897.84;10864654;27;20038;-60
2024/04/17 23:27:06;;;;;;;4.22;1.48;;;;;;;7.29;58.38;99890.50;10860641;27;20432;-59
2024/04/17 23:32:07;;;;;;;3.83;1.35;;;;;;;7.25;58.71;99894.50;10858839;27;20007;-60
2024/04/17 23:37:09;;;;;;;6.00;1.88;;;;;;;7.21;58.92;99897.66;10857826;27;20655;-59
2024/04/17 23:42:11;;;;;;;3.75;1.20;;;;;;;7.17;59.10;99897.19;10868109;27;20430;-59